createdAt,value
2017-08-05T00:00:28.129Z,3.90
2017-08-05T00:02:56.339Z,7.40
2017-08-05T00:05:26.801Z,5.13
2017-08-05T00:07:56.215Z,3.93
2017-08-05T00:10:23.694Z,4.37
2017-08-05T00:12:53.300Z,6.43
2017-08-05T00:15:20.811Z,2.93
2017-08-05T00:17:49.620Z,7.23
2017-08-05T00:20:17.985Z,5.40
2017-08-05T00:22:45.717Z,7.30
2017-08-05T00:25:14.115Z,5.97
2017-08-05T00:27:42.048Z,5.20
2017-08-05T00:30:09.662Z,6.30
2017-08-05T00:32:38.465Z,6.67
2017-08-05T00:35:07.249Z,9.23
2017-08-05T00:37:34.873Z,3.97
2017-08-05T00:40:02.395Z,5.03
2017-08-05T00:42:29.884Z,4.93
2017-08-05T00:45:01.602Z,3.10
2017-08-05T00:47:29.100Z,4.63
2017-08-05T00:49:56.636Z,5.37
2017-08-05T00:52:24.312Z,9.27
2017-08-05T00:54:57.962Z,8.27
2017-08-05T00:57:27.036Z,5.30
2017-08-05T00:59:54.635Z,6.23
2017-08-05T01:02:22.156Z,5.80
2017-08-05T01:04:49.725Z,6.20
2017-08-05T01:07:17.217Z,5.40
2017-08-05T01:09:46.000Z,5.57
2017-08-05T01:12:13.575Z,5.23
2017-08-05T01:14:41.945Z,5.33
2017-08-05T01:17:09.823Z,5.93
2017-08-05T01:19:38.117Z,3.50
2017-08-05T01:22:05.640Z,7.07
2017-08-05T01:24:33.978Z,7.43
2017-08-05T01:27:01.582Z,3.40
2017-08-05T01:29:29.051Z,5.23
2017-08-05T01:31:56.492Z,3.73
2017-08-05T01:34:24.068Z,5.20
2017-08-05T01:36:52.327Z,5.90
2017-08-05T01:39:19.843Z,3.10
2017-08-05T01:41:47.368Z,4.20
2017-08-05T01:44:15.791Z,4.30
2017-08-05T01:46:43.284Z,3.70
2017-08-05T01:49:11.165Z,5.80
2017-08-05T01:51:41.532Z,5.83
2017-08-05T01:54:13.198Z,4.20
2017-08-05T01:56:42.545Z,2.73
2017-08-05T01:59:10.275Z,5.93
2017-08-05T02:01:37.964Z,4.70
2017-08-05T02:04:05.479Z,3.57
2017-08-05T02:06:32.973Z,3.73
2017-08-05T02:09:00.499Z,4.93
2017-08-05T02:11:28.059Z,3.60
2017-08-05T02:13:55.632Z,5.30
2017-08-05T02:16:27.656Z,3.03
2017-08-05T02:18:55.466Z,7.60
2017-08-05T02:21:22.949Z,5.20
2017-08-05T02:23:50.471Z,3.93
2017-08-05T02:26:17.931Z,3.30
2017-08-05T02:28:47.672Z,6.97
2017-08-05T02:31:15.992Z,3.73
2017-08-05T02:33:43.679Z,4.00
2017-08-05T02:36:11.129Z,4.07
2017-08-05T02:38:39.208Z,4.73
2017-08-05T02:41:08.551Z,6.20
2017-08-05T02:43:37.399Z,5.53
2017-08-05T02:46:05.086Z,7.53
2017-08-05T02:48:32.688Z,5.90
2017-08-05T02:51:01.964Z,7.27
2017-08-05T02:53:30.544Z,4.13
2017-08-05T02:56:00.114Z,4.33
2017-08-05T02:58:28.346Z,5.30
2017-08-05T03:00:56.030Z,6.07
2017-08-05T03:03:24.113Z,3.70
2017-08-05T03:05:51.574Z,9.07
2017-08-05T03:08:19.259Z,3.30
2017-08-05T03:10:47.775Z,2.97
2017-08-05T03:13:15.225Z,6.07
2017-08-05T03:15:42.712Z,4.60
2017-08-05T03:18:14.201Z,7.97
2017-08-05T03:20:41.719Z,3.57
2017-08-05T03:23:09.283Z,5.20
2017-08-05T03:25:38.268Z,5.10
2017-08-05T03:28:11.591Z,9.27
2017-08-05T03:30:39.256Z,5.00
2017-08-05T03:33:11.788Z,5.97
2017-08-05T03:35:39.268Z,5.37
2017-08-05T03:38:13.664Z,4.33
2017-08-05T03:40:41.140Z,5.87
2017-08-05T03:43:11.449Z,5.40
2017-08-05T03:45:38.997Z,4.67
2017-08-05T03:48:06.576Z,9.50
2017-08-05T03:50:36.717Z,6.43
2017-08-05T03:53:04.168Z,11.57
2017-08-05T03:55:31.625Z,6.60
2017-08-05T03:57:59.067Z,7.70
2017-08-05T04:00:27.320Z,7.70
2017-08-05T04:02:55.743Z,6.70
2017-08-05T04:05:24.636Z,6.60
2017-08-05T04:07:52.100Z,6.67
2017-08-05T04:10:19.569Z,7.30
2017-08-05T04:12:48.163Z,5.13
2017-08-05T04:15:15.602Z,5.93
2017-08-05T04:17:43.096Z,7.70
2017-08-05T04:20:10.535Z,8.33
2017-08-05T04:22:38.041Z,9.57
2017-08-05T04:25:05.581Z,8.07
2017-08-05T04:27:33.071Z,6.80
2017-08-05T04:30:00.532Z,6.37
2017-08-05T04:32:28.972Z,5.87
2017-08-05T04:34:56.438Z,7.10
2017-08-05T04:37:24.642Z,7.00
2017-08-05T04:39:52.150Z,6.20
2017-08-05T04:42:19.668Z,6.67
2017-08-05T04:44:47.263Z,8.40
2017-08-05T04:47:14.904Z,7.90
2017-08-05T04:49:42.418Z,9.10
2017-08-05T04:52:09.897Z,7.53
2017-08-05T04:54:38.501Z,9.87
2017-08-05T04:57:05.979Z,8.60
2017-08-05T04:59:33.503Z,7.83
2017-08-05T05:02:01.092Z,8.43
2017-08-05T05:04:28.556Z,8.23
2017-08-05T05:06:56.055Z,5.80
2017-08-05T05:09:24.978Z,8.03
2017-08-05T05:11:52.462Z,6.27
2017-08-05T05:14:20.032Z,8.00
2017-08-05T05:16:47.575Z,7.80
2017-08-05T05:19:15.060Z,10.03
2017-08-05T05:21:42.592Z,5.97
2017-08-05T05:24:10.173Z,8.30
2017-08-05T05:26:38.224Z,9.73
2017-08-05T05:29:05.729Z,8.47
2017-08-05T05:31:33.240Z,7.80
2017-08-05T05:34:00.695Z,8.00
2017-08-05T05:36:28.151Z,13.23
2017-08-05T05:38:55.620Z,12.60
2017-08-05T05:41:23.069Z,8.97
2017-08-05T05:43:50.762Z,8.33
2017-08-05T05:46:18.297Z,9.40
2017-08-05T05:48:45.763Z,7.40
2017-08-05T05:51:13.374Z,10.63
2017-08-05T05:53:40.911Z,7.70
2017-08-05T05:56:08.459Z,9.77
2017-08-05T05:58:35.981Z,11.10
2017-08-05T06:01:03.910Z,11.50
2017-08-05T06:03:32.223Z,10.70
2017-08-05T06:05:59.680Z,7.20
2017-08-05T06:08:27.167Z,9.20
2017-08-05T06:10:54.643Z,8.10
2017-08-05T06:13:23.049Z,7.77
2017-08-05T06:15:50.539Z,14.07
2017-08-05T06:18:18.044Z,11.60
2017-08-05T06:20:46.055Z,10.80
2017-08-05T06:23:13.564Z,13.93
2017-08-05T06:25:41.187Z,11.03
2017-08-05T06:28:09.887Z,12.43
2017-08-05T06:30:37.457Z,9.80
2017-08-05T06:33:04.909Z,13.83
2017-08-05T06:35:32.367Z,14.40
2017-08-05T06:38:02.872Z,11.40
2017-08-05T06:40:31.183Z,9.20
2017-08-05T06:43:06.121Z,11.17
2017-08-05T06:45:33.709Z,15.60
2017-08-05T06:48:03.072Z,11.37
2017-08-05T06:50:30.609Z,11.20
2017-08-05T06:53:11.866Z,11.40
2017-08-05T06:55:39.411Z,9.80
2017-08-05T06:58:06.955Z,11.30
2017-08-05T07:00:36.258Z,11.07
2017-08-05T07:03:04.214Z,12.50
2017-08-05T07:05:31.743Z,9.60
2017-08-05T07:07:59.263Z,10.83
2017-08-05T07:10:26.738Z,15.90
2017-08-05T07:12:54.341Z,16.07
2017-08-05T07:15:21.835Z,13.20
2017-08-05T07:17:50.111Z,9.90
2017-08-05T07:20:17.569Z,14.20
2017-08-05T07:22:46.012Z,13.70
2017-08-05T07:25:13.487Z,12.20
2017-08-05T07:27:41.003Z,12.20
2017-08-05T07:30:08.487Z,6.80
2017-08-05T07:32:36.045Z,7.57
2017-08-05T07:35:03.571Z,10.30
2017-08-05T07:37:31.045Z,11.90
2017-08-05T07:39:58.599Z,10.47
2017-08-05T07:42:26.055Z,11.50
2017-08-05T07:44:53.581Z,13.13
2017-08-05T07:49:55.119Z,8.97
2017-08-05T07:52:22.647Z,8.10
2017-08-05T07:54:50.158Z,12.60
2017-08-05T07:57:19.751Z,8.40
2017-08-05T07:59:47.468Z,9.27
2017-08-05T08:02:16.778Z,14.60
2017-08-05T08:04:44.396Z,10.33
2017-08-05T08:07:12.103Z,10.17
2017-08-05T08:09:39.676Z,11.67
2017-08-05T08:12:07.985Z,12.43
2017-08-05T08:14:35.501Z,12.80
2017-08-05T08:17:05.900Z,8.73
2017-08-05T08:19:34.576Z,9.20
2017-08-05T08:22:02.212Z,8.67
2017-08-05T08:24:32.902Z,10.90
2017-08-05T08:27:03.434Z,10.10
2017-08-05T08:29:30.969Z,9.50
2017-08-05T08:32:06.430Z,8.57
2017-08-05T08:34:41.356Z,8.90
2017-08-05T08:37:08.940Z,10.53
2017-08-05T08:39:39.371Z,7.70
2017-08-05T08:44:51.513Z,8.17
2017-08-05T08:47:21.392Z,6.50
2017-08-05T08:49:51.324Z,6.70
2017-08-05T08:52:27.667Z,5.53
2017-08-05T08:54:55.324Z,6.00
2017-08-05T08:57:23.209Z,6.17
2017-08-05T08:59:55.312Z,8.43
2017-08-05T09:02:24.823Z,6.80
2017-08-05T09:04:56.958Z,7.90
2017-08-05T09:10:01.117Z,7.40
2017-08-05T09:12:33.143Z,6.30
2017-08-05T09:15:03.346Z,6.00
2017-08-05T09:17:35.093Z,5.33
2017-08-05T09:20:05.039Z,6.97
2017-08-05T09:22:45.609Z,5.43
2017-08-05T09:27:55.910Z,5.83
2017-08-05T09:30:45.656Z,5.40
2017-08-05T09:33:15.213Z,6.23
2017-08-05T09:38:39.276Z,7.20
2017-08-05T09:41:10.938Z,8.23
2017-08-05T09:44:09.740Z,6.87
2017-08-05T09:46:38.727Z,5.93
2017-08-05T09:49:08.554Z,6.40
2017-08-05T09:51:38.943Z,5.90
2017-08-05T09:54:07.957Z,6.40
2017-08-05T09:56:42.176Z,8.70
2017-08-05T09:59:14.462Z,9.53
2017-08-05T10:01:45.811Z,6.03
2017-08-05T10:04:17.212Z,6.13
2017-08-05T10:09:33.638Z,9.10
2017-08-05T10:12:03.457Z,8.20
2017-08-05T10:17:20.808Z,16.30
2017-08-05T10:19:49.639Z,11.37
2017-08-05T10:22:18.166Z,10.07
2017-08-05T10:24:59.225Z,10.07
2017-08-05T10:27:29.813Z,12.20
2017-08-05T10:29:58.114Z,14.20
2017-08-05T10:32:27.166Z,11.97
2017-08-05T10:34:55.029Z,11.87
2017-08-05T10:37:22.724Z,11.20
2017-08-05T10:40:11.247Z,9.70
2017-08-05T10:45:28.324Z,8.97
2017-08-05T10:50:40.195Z,10.00
2017-08-05T10:53:26.693Z,10.10
2017-08-05T10:58:46.472Z,11.23
2017-08-05T11:01:18.677Z,11.90
2017-08-05T11:04:06.153Z,10.90
2017-08-05T11:06:42.484Z,27.47
2017-08-05T11:09:15.854Z,11.03
2017-08-05T11:11:45.485Z,12.73
2017-08-05T11:14:15.969Z,12.37
2017-08-05T11:16:43.867Z,11.47
2017-08-05T11:19:20.349Z,13.20
2017-08-05T11:21:52.631Z,12.60
2017-08-05T11:24:20.763Z,14.93
2017-08-05T11:26:49.323Z,14.37
2017-08-05T11:29:18.384Z,12.10
2017-08-05T11:31:48.288Z,12.47
2017-08-05T11:34:22.294Z,13.57
2017-08-05T11:39:35.590Z,18.20
2017-08-05T11:45:07.151Z,19.20
2017-08-05T11:47:35.268Z,18.07
2017-08-05T11:50:15.700Z,16.43
2017-08-05T11:52:52.324Z,16.17
2017-08-05T11:55:36.935Z,18.30
2017-08-05T11:58:26.166Z,18.40
2017-08-05T12:01:02.482Z,16.60
2017-08-05T12:03:41.049Z,17.63
2017-08-05T12:06:11.253Z,18.37
2017-08-05T12:08:46.663Z,16.43
2017-08-05T12:11:34.516Z,19.73
2017-08-05T12:14:01.966Z,18.17
2017-08-05T12:16:29.613Z,16.70
2017-08-05T12:18:57.072Z,14.97
2017-08-05T12:21:24.875Z,19.23
2017-08-05T12:23:52.467Z,16.47
2017-08-05T12:26:19.962Z,23.00
2017-08-05T12:28:48.851Z,24.57
2017-08-05T12:31:16.399Z,30.10
2017-08-05T12:33:43.898Z,26.90
2017-08-05T12:36:11.477Z,35.73
2017-08-05T12:38:39.062Z,32.70
2017-08-05T12:41:07.044Z,25.63
2017-08-05T12:43:47.207Z,25.60
2017-08-05T12:46:16.865Z,25.23
2017-08-05T12:48:44.599Z,26.00
2017-08-05T12:51:13.940Z,22.53
2017-08-05T12:53:44.831Z,22.80
2017-08-05T12:56:20.589Z,24.40
2017-08-05T12:58:52.075Z,20.90
2017-08-05T13:01:19.575Z,26.60
2017-08-05T13:03:47.085Z,25.73
2017-08-05T13:06:16.228Z,22.67
2017-08-05T13:08:52.804Z,17.87
2017-08-05T13:11:22.680Z,13.33
2017-08-05T13:13:50.211Z,15.47
2017-08-05T13:16:20.420Z,10.30
2017-08-05T13:18:49.819Z,8.60
2017-08-05T13:21:18.412Z,7.80
2017-08-05T13:23:48.457Z,8.27
2017-08-05T13:26:17.871Z,5.63
2017-08-05T13:31:25.129Z,4.20
2017-08-05T13:33:55.815Z,6.23
2017-08-05T13:36:27.187Z,7.67
2017-08-05T13:39:08.529Z,6.73
2017-08-05T13:41:36.379Z,7.90
2017-08-05T13:44:03.995Z,8.53
2017-08-05T13:46:31.537Z,11.30
2017-08-05T13:49:00.431Z,14.17
2017-08-05T13:51:28.164Z,13.77
2017-08-05T13:54:02.694Z,16.80
2017-08-05T13:56:31.053Z,17.70
2017-08-05T13:58:58.664Z,18.20
2017-08-05T14:01:26.224Z,16.53
2017-08-05T14:03:54.812Z,15.57
2017-08-05T14:06:22.348Z,15.83
2017-08-05T14:08:49.970Z,14.13
2017-08-05T14:11:17.460Z,17.60
2017-08-05T14:13:44.975Z,13.60
2017-08-05T14:16:12.613Z,13.43
2017-08-05T14:18:40.268Z,11.37
2017-08-05T14:21:08.032Z,11.90
2017-08-05T14:23:35.569Z,13.70
2017-08-05T14:26:03.200Z,15.10
2017-08-05T14:28:31.606Z,11.60
2017-08-05T14:31:01.755Z,13.43
2017-08-05T14:33:29.346Z,12.43
2017-08-05T14:35:57.119Z,10.47
2017-08-05T14:38:26.025Z,13.87
2017-08-05T14:40:53.592Z,12.53
2017-08-05T14:43:21.524Z,11.60
2017-08-05T14:45:50.500Z,11.80
2017-08-05T14:48:18.081Z,9.00
2017-08-05T14:50:46.701Z,9.47
2017-08-05T14:53:14.390Z,8.83
2017-08-05T14:55:41.946Z,8.90
2017-08-05T14:58:09.536Z,9.90
2017-08-05T15:00:37.070Z,11.57
2017-08-05T15:03:04.572Z,11.33
2017-08-05T15:05:32.061Z,10.00
2017-08-05T15:07:59.727Z,10.27
2017-08-05T15:10:27.218Z,8.77
2017-08-05T15:12:55.106Z,7.87
2017-08-05T15:15:22.622Z,7.70
2017-08-05T15:17:52.941Z,9.40
2017-08-05T15:20:20.485Z,8.63
2017-08-05T15:22:47.957Z,9.70
2017-08-05T15:25:15.501Z,8.90
2017-08-05T15:27:44.919Z,9.20
2017-08-05T15:30:12.572Z,11.47
2017-08-05T15:32:40.084Z,11.57
2017-08-05T15:35:08.407Z,16.17
2017-08-05T15:37:36.007Z,14.60
2017-08-05T15:40:03.834Z,16.30
2017-08-05T15:42:31.307Z,17.00
2017-08-05T15:44:58.748Z,13.63
2017-08-05T15:47:26.915Z,13.67
2017-08-05T15:49:55.236Z,14.13
2017-08-05T15:52:23.001Z,13.90
2017-08-05T15:54:55.949Z,14.60
2017-08-05T15:57:25.456Z,11.27
2017-08-05T15:59:52.956Z,19.53
2017-08-05T16:02:20.457Z,13.43
2017-08-05T16:04:48.018Z,15.10
2017-08-05T16:07:15.717Z,16.90
2017-08-05T16:09:44.081Z,17.07
2017-08-05T16:12:12.377Z,17.43
2017-08-05T16:14:39.902Z,17.30
2017-08-05T16:17:07.697Z,17.57
2017-08-05T16:19:35.512Z,16.73
2017-08-05T16:22:03.243Z,17.30
2017-08-05T16:24:31.593Z,17.40
2017-08-05T16:27:00.265Z,19.80
2017-08-05T16:29:27.830Z,16.20
2017-08-05T16:31:55.306Z,16.47
2017-08-05T16:34:23.044Z,15.07
2017-08-05T16:36:53.487Z,19.37
2017-08-05T16:39:24.187Z,18.13
2017-08-05T16:41:51.798Z,18.00
2017-08-05T16:44:19.634Z,17.40
2017-08-05T16:46:47.382Z,18.07
2017-08-05T16:49:15.236Z,18.90
2017-08-05T16:51:42.801Z,18.30
2017-08-05T16:54:11.634Z,17.53
2017-08-05T16:56:40.700Z,21.03
2017-08-05T16:59:08.356Z,18.90
2017-08-05T17:01:36.693Z,20.27
2017-08-05T17:04:05.936Z,16.93
2017-08-05T17:06:34.414Z,21.93
2017-08-05T17:09:03.241Z,16.63
2017-08-05T17:11:32.842Z,17.90
2017-08-05T17:14:04.720Z,14.03
2017-08-05T17:16:34.345Z,15.47
2017-08-05T17:19:04.115Z,17.80
2017-08-05T17:21:34.917Z,13.97
2017-08-05T17:24:03.011Z,13.40
2017-08-05T17:26:32.040Z,17.13
2017-08-05T17:29:02.530Z,12.90
2017-08-05T17:31:31.305Z,15.00
2017-08-05T17:34:00.667Z,12.70
2017-08-05T17:36:32.059Z,15.30
2017-08-05T17:38:59.765Z,12.50
2017-08-05T17:41:30.252Z,11.50
2017-08-05T17:44:00.813Z,11.93
2017-08-05T17:46:29.641Z,12.90
2017-08-05T17:48:58.053Z,12.67
2017-08-05T17:51:25.679Z,16.17
2017-08-05T17:53:53.983Z,14.03
2017-08-05T17:56:25.411Z,16.13
2017-08-05T17:59:00.709Z,18.30
2017-08-05T18:01:29.037Z,17.87
2017-08-05T18:04:00.786Z,16.30
2017-08-05T18:06:30.811Z,19.97
2017-08-05T18:08:59.008Z,17.47
2017-08-05T18:11:27.268Z,15.90
2017-08-05T18:13:57.199Z,13.30
2017-08-05T18:16:25.593Z,14.90
2017-08-05T18:18:53.115Z,16.70
2017-08-05T18:21:22.749Z,25.30
2017-08-05T18:24:01.062Z,19.70
2017-08-05T18:26:48.531Z,15.83
2017-08-05T18:29:17.481Z,15.00
2017-08-05T18:31:47.322Z,16.23
2017-08-05T18:34:14.942Z,14.77
2017-08-05T18:36:55.106Z,15.97
2017-08-05T18:39:25.648Z,14.43
2017-08-05T18:44:29.736Z,16.60
2017-08-05T18:46:59.582Z,14.33
2017-08-05T18:49:28.570Z,16.53
2017-08-05T18:51:56.318Z,18.80
2017-08-05T18:54:26.984Z,18.73
2017-08-05T18:56:57.709Z,18.23
2017-08-05T18:59:27.923Z,16.87
2017-08-05T19:01:56.891Z,15.33
2017-08-05T19:04:25.016Z,16.80
2017-08-05T19:06:52.529Z,21.67
2017-08-05T19:09:28.972Z,17.87
2017-08-05T19:11:57.729Z,16.93
2017-08-05T19:14:25.283Z,18.73
2017-08-05T19:16:53.698Z,21.67
2017-08-05T19:19:21.321Z,20.83
2017-08-05T19:21:52.341Z,18.60
2017-08-05T19:24:21.368Z,17.60
2017-08-05T19:26:51.855Z,15.97
2017-08-05T19:29:34.528Z,17.87
2017-08-05T19:32:02.356Z,15.93
2017-08-05T19:34:34.079Z,14.90
2017-08-05T19:37:02.351Z,17.20
2017-08-05T19:39:32.624Z,14.43
2017-08-05T19:42:03.393Z,16.10
2017-08-05T19:44:31.715Z,14.97
2017-08-05T19:47:00.297Z,17.93
2017-08-05T19:49:27.815Z,16.23
2017-08-05T19:51:56.508Z,15.40
2017-08-05T19:54:24.623Z,16.97
2017-08-05T19:56:52.196Z,16.87
2017-08-05T19:59:20.272Z,15.50
2017-08-05T20:01:49.742Z,20.70
2017-08-05T20:04:25.209Z,16.53
2017-08-05T20:06:52.985Z,17.53
2017-08-05T20:09:20.656Z,15.97
2017-08-05T20:11:49.227Z,15.33
2017-08-05T20:14:18.484Z,18.67
2017-08-05T20:16:47.006Z,21.33
2017-08-05T20:19:14.569Z,16.53
2017-08-05T20:21:51.074Z,19.97
2017-08-05T20:24:20.672Z,19.67
2017-08-05T20:26:48.976Z,17.80
2017-08-05T20:29:20.449Z,19.17
2017-08-05T20:34:31.675Z,20.33
2017-08-05T20:37:00.377Z,18.43
2017-08-05T20:39:28.309Z,21.50
2017-08-05T20:41:56.575Z,20.83
2017-08-05T20:44:24.418Z,17.90
2017-08-05T20:46:54.293Z,19.90
2017-08-05T20:49:25.012Z,19.63
2017-08-05T20:52:03.640Z,24.50
2017-08-05T20:54:35.190Z,23.83
2017-08-05T20:57:02.855Z,22.80
2017-08-05T20:59:30.667Z,21.87
2017-08-05T21:01:59.402Z,25.03
2017-08-05T21:04:29.561Z,23.23
2017-08-05T21:07:00.384Z,23.53
2017-08-05T21:09:29.012Z,21.30
2017-08-05T21:11:57.470Z,28.87
2017-08-05T21:14:25.138Z,21.93
2017-08-05T21:16:53.606Z,28.10
2017-08-05T21:19:22.078Z,23.67
2017-08-05T21:21:50.689Z,26.27
2017-08-05T21:24:18.395Z,26.53
2017-08-05T21:26:46.001Z,27.50
2017-08-05T21:29:13.712Z,27.83
2017-08-05T21:31:41.299Z,25.67
2017-08-05T21:34:09.199Z,31.40
2017-08-05T21:36:36.738Z,25.17
2017-08-05T21:39:04.777Z,25.53
2017-08-05T21:41:33.076Z,24.77
2017-08-05T21:44:00.633Z,30.37
2017-08-05T21:46:29.242Z,27.43
2017-08-05T21:48:56.736Z,29.70
2017-08-05T21:51:25.047Z,23.53
2017-08-05T21:53:52.903Z,24.07
2017-08-05T21:56:20.528Z,24.30
2017-08-05T21:58:48.043Z,24.40
2017-08-05T22:01:15.586Z,24.70
2017-08-05T22:03:43.052Z,23.30
2017-08-05T22:06:12.130Z,24.53
2017-08-05T22:08:40.411Z,25.77
2017-08-05T22:11:07.913Z,25.63
2017-08-05T22:13:35.404Z,30.87
2017-08-05T22:16:02.939Z,23.73
2017-08-05T22:18:30.426Z,27.93
2017-08-05T22:21:01.674Z,34.10
2017-08-05T22:23:30.833Z,28.27
2017-08-05T22:25:59.639Z,31.53
2017-08-05T22:28:29.165Z,20.43
2017-08-05T22:30:58.628Z,27.70
2017-08-05T22:33:26.614Z,26.20
2017-08-05T22:35:55.826Z,22.93
2017-08-05T22:38:23.790Z,22.80
2017-08-05T22:40:52.122Z,26.00
2017-08-05T22:43:19.853Z,22.33
2017-08-05T22:45:48.481Z,19.37
2017-08-05T22:48:16.368Z,22.10
2017-08-05T22:50:44.900Z,23.53
2017-08-05T22:53:15.450Z,23.53
2017-08-05T22:55:43.800Z,21.93
2017-08-05T22:58:12.880Z,20.30
2017-08-05T23:00:40.518Z,19.17
2017-08-05T23:03:10.438Z,21.63
2017-08-05T23:05:40.961Z,24.63
2017-08-05T23:08:10.087Z,21.23
2017-08-05T23:10:38.837Z,21.83
2017-08-05T23:13:06.490Z,23.33
2017-08-05T23:15:38.874Z,25.47
2017-08-05T23:18:07.827Z,19.73
2017-08-05T23:20:35.415Z,23.30
2017-08-05T23:23:03.493Z,22.23
2017-08-05T23:25:33.159Z,19.00
2017-08-05T23:28:01.820Z,20.80
2017-08-05T23:30:29.306Z,26.57
2017-08-05T23:32:58.563Z,21.50
2017-08-05T23:35:26.380Z,22.27
2017-08-05T23:37:53.862Z,18.67
2017-08-05T23:40:22.088Z,20.77
2017-08-05T23:42:50.668Z,19.23
2017-08-05T23:45:19.085Z,21.43
2017-08-05T23:47:46.854Z,18.27
2017-08-05T23:50:15.333Z,17.03
2017-08-05T23:52:43.012Z,16.37
2017-08-05T23:55:10.551Z,16.93
2017-08-05T23:57:38.096Z,16.73
